createdAt,value
2022-09-21T00:00:37.598Z,21.88
2022-09-21T00:01:37.725Z,21.88
2022-09-21T00:02:37.587Z,21.90
2022-09-21T00:03:37.568Z,21.90
2022-09-21T00:04:37.638Z,21.90
2022-09-21T00:05:37.498Z,21.90
2022-09-21T00:06:37.508Z,21.84
2022-09-21T00:07:37.524Z,21.88
2022-09-21T00:08:37.477Z,21.86
2022-09-21T00:09:37.455Z,21.84
2022-09-21T00:10:37.530Z,21.88
2022-09-21T00:11:37.434Z,21.84
2022-09-21T00:12:37.425Z,21.90
2022-09-21T00:13:37.433Z,21.86
2022-09-21T00:14:37.387Z,21.86
2022-09-21T00:15:37.377Z,21.86
2022-09-21T00:16:37.538Z,21.83
2022-09-21T00:17:37.378Z,21.84
2022-09-21T00:18:37.337Z,21.83
2022-09-21T00:19:37.346Z,21.83
2022-09-21T00:20:37.304Z,21.84
2022-09-21T00:21:37.284Z,21.82
2022-09-21T00:22:37.506Z,21.83
2022-09-21T00:23:37.259Z,21.83
2022-09-21T00:24:37.253Z,21.84
2022-09-21T00:25:37.266Z,21.80
2022-09-21T00:26:37.226Z,21.82
2022-09-21T00:27:37.208Z,21.80
2022-09-21T00:28:37.286Z,21.80
2022-09-21T00:29:37.179Z,21.80
2022-09-21T00:30:37.158Z,21.77
2022-09-21T00:31:37.214Z,21.79
2022-09-21T00:32:37.146Z,21.77
2022-09-21T00:33:37.124Z,21.77
2022-09-21T00:34:37.339Z,21.77
2022-09-21T00:35:37.088Z,21.77
2022-09-21T00:36:37.077Z,21.80
2022-09-21T00:37:37.119Z,21.77
2022-09-21T00:38:37.057Z,21.75
2022-09-21T00:39:37.040Z,21.77
2022-09-21T00:40:37.189Z,21.77
2022-09-21T00:41:37.025Z,21.74
2022-09-21T00:42:36.996Z,21.77
2022-09-21T00:43:37.020Z,21.75
2022-09-21T00:44:36.965Z,21.74
2022-09-21T00:45:36.992Z,21.79
2022-09-21T00:46:37.023Z,21.74
2022-09-21T00:47:36.920Z,21.77
2022-09-21T00:48:36.913Z,21.72
2022-09-21T00:49:37.073Z,21.72
2022-09-21T00:50:36.903Z,21.74
2022-09-21T00:51:36.870Z,21.72
2022-09-21T00:52:37.519Z,21.72
2022-09-21T00:53:36.836Z,21.72
2022-09-21T00:54:36.835Z,21.75
2022-09-21T00:55:36.842Z,21.71
2022-09-21T00:56:36.811Z,21.71
2022-09-21T00:57:36.795Z,21.72
2022-09-21T00:58:36.923Z,21.72
2022-09-21T00:59:36.751Z,21.71
2022-09-21T01:00:36.748Z,21.69
2022-09-21T01:01:36.775Z,21.69
2022-09-21T01:02:36.731Z,21.72
2022-09-21T01:03:36.711Z,21.71
2022-09-21T01:04:36.895Z,21.69
2022-09-21T01:05:36.678Z,21.69
2022-09-21T01:06:36.657Z,21.69
2022-09-21T01:07:36.673Z,21.69
2022-09-21T01:08:36.644Z,21.69
2022-09-21T01:09:36.615Z,21.68
2022-09-21T01:10:36.766Z,21.69
2022-09-21T01:11:36.577Z,21.71
2022-09-21T01:12:36.575Z,21.68
2022-09-21T01:13:36.605Z,21.67
2022-09-21T01:14:36.549Z,21.68
2022-09-21T01:15:36.523Z,21.69
2022-09-21T01:16:36.769Z,21.71
2022-09-21T01:17:36.520Z,21.67
2022-09-21T01:18:36.497Z,21.67
2022-09-21T01:19:36.498Z,21.68
2022-09-21T01:20:36.466Z,21.68
2022-09-21T01:21:36.456Z,21.68
2022-09-21T01:22:36.591Z,21.67
2022-09-21T01:23:36.419Z,21.67
2022-09-21T01:24:36.411Z,21.67
2022-09-21T01:25:36.563Z,21.67
2022-09-21T01:26:36.376Z,21.64
2022-09-21T01:27:36.375Z,21.65
2022-09-21T01:28:36.510Z,21.64
2022-09-21T01:29:36.336Z,21.62
2022-09-21T01:30:36.312Z,21.62
2022-09-21T01:31:36.486Z,21.64
2022-09-21T01:32:36.296Z,21.61
2022-09-21T01:33:36.281Z,21.64
2022-09-21T01:34:36.427Z,21.62
2022-09-21T01:35:36.250Z,21.59
2022-09-21T01:36:36.238Z,21.62
2022-09-21T01:37:36.267Z,21.61
2022-09-21T01:38:36.328Z,21.59
2022-09-21T01:39:36.192Z,21.62
2022-09-21T01:40:36.401Z,21.64
2022-09-21T01:41:36.163Z,21.62
2022-09-21T01:42:36.157Z,21.58
2022-09-21T01:43:36.182Z,21.61
2022-09-21T01:44:36.134Z,21.61
2022-09-21T01:45:36.148Z,21.58
2022-09-21T01:46:36.191Z,21.59
2022-09-21T01:47:36.092Z,21.59
2022-09-21T01:48:36.066Z,21.58
2022-09-21T01:49:36.089Z,21.61
2022-09-21T01:50:36.045Z,21.61
2022-09-21T01:51:36.024Z,21.59
2022-09-21T01:52:36.098Z,21.59
2022-09-21T01:53:35.995Z,21.59
2022-09-21T01:54:35.985Z,21.58
2022-09-21T01:55:36.011Z,21.58
2022-09-21T01:56:35.964Z,21.58
2022-09-21T01:57:35.947Z,21.58
2022-09-21T01:58:36.085Z,21.56
2022-09-21T01:59:35.921Z,21.56
2022-09-21T02:00:35.954Z,21.54
2022-09-21T02:01:35.931Z,21.56
2022-09-21T02:02:35.892Z,21.56
2022-09-21T02:03:35.865Z,21.54
2022-09-21T02:04:36.054Z,21.54
2022-09-21T02:05:35.846Z,21.53
2022-09-21T02:06:35.818Z,21.56
2022-09-21T02:07:35.832Z,21.56
2022-09-21T02:08:35.796Z,21.53
2022-09-21T02:09:35.777Z,21.53
2022-09-21T02:10:35.848Z,21.53
2022-09-21T02:11:35.753Z,21.53
2022-09-21T02:12:35.736Z,21.52
2022-09-21T02:13:35.784Z,21.53
2022-09-21T02:14:35.708Z,21.49
2022-09-21T02:15:35.694Z,21.52
2022-09-21T02:16:35.765Z,21.50
2022-09-21T02:17:35.666Z,21.52
2022-09-21T02:18:35.646Z,21.53
2022-09-21T02:19:35.686Z,21.50
2022-09-21T02:20:35.614Z,21.52
2022-09-21T02:21:35.629Z,21.50
2022-09-21T02:22:35.732Z,21.52
2022-09-21T02:23:35.581Z,21.49
2022-09-21T02:24:35.573Z,21.52
2022-09-21T02:25:35.610Z,21.52
2022-09-21T02:26:35.554Z,21.49
2022-09-21T02:27:35.518Z,21.49
2022-09-21T02:28:35.672Z,21.50
2022-09-21T02:29:35.490Z,21.44
2022-09-21T02:30:35.484Z,21.46
2022-09-21T02:31:35.527Z,21.47
2022-09-21T02:32:35.465Z,21.46
2022-09-21T02:33:35.451Z,21.44
2022-09-21T02:34:35.570Z,21.44
2022-09-21T02:35:35.408Z,21.46
2022-09-21T02:36:35.394Z,21.47
2022-09-21T02:37:35.408Z,21.47
2022-09-21T02:38:35.381Z,21.44
2022-09-21T02:39:35.359Z,21.44
2022-09-21T02:40:35.607Z,21.44
2022-09-21T02:41:35.318Z,21.43
2022-09-21T02:42:35.326Z,21.44
2022-09-21T02:43:35.337Z,21.44
2022-09-21T02:44:35.283Z,21.42
2022-09-21T02:45:35.268Z,21.42
2022-09-21T02:46:35.534Z,21.43
2022-09-21T02:47:35.242Z,21.42
2022-09-21T02:48:35.227Z,21.43
2022-09-21T02:49:35.238Z,21.43
2022-09-21T02:50:35.208Z,21.42
2022-09-21T02:51:35.190Z,21.42
2022-09-21T02:52:35.324Z,21.43
2022-09-21T02:53:35.156Z,21.40
2022-09-21T02:54:35.147Z,21.37
2022-09-21T02:55:35.366Z,21.42
2022-09-21T02:56:35.121Z,21.40
2022-09-21T02:57:35.109Z,21.44
2022-09-21T02:58:35.286Z,21.40
2022-09-21T02:59:35.083Z,21.43
2022-09-21T03:00:35.093Z,21.42
2022-09-21T03:01:35.101Z,21.42
2022-09-21T03:02:35.040Z,21.40
2022-09-21T03:03:35.015Z,21.37
2022-09-21T03:04:35.151Z,21.40
2022-09-21T03:05:34.982Z,21.38
2022-09-21T03:06:35.001Z,21.37
2022-09-21T03:07:35.206Z,21.38
2022-09-21T03:08:34.970Z,21.37
2022-09-21T03:09:34.941Z,21.35
2022-09-21T03:10:34.919Z,21.37
2022-09-21T03:11:34.907Z,21.37
2022-09-21T03:12:34.897Z,21.37
2022-09-21T03:13:35.059Z,21.35
2022-09-21T03:14:34.854Z,21.37
2022-09-21T03:15:34.888Z,21.37
2022-09-21T03:16:34.836Z,21.37
2022-09-21T03:17:34.818Z,21.37
2022-09-21T03:18:34.809Z,21.40
2022-09-21T03:19:34.904Z,21.38
2022-09-21T03:20:34.781Z,21.35
2022-09-21T03:21:34.755Z,21.34
2022-09-21T03:22:34.771Z,21.35
2022-09-21T03:23:34.727Z,21.34
2022-09-21T03:24:34.739Z,21.31
2022-09-21T03:25:34.817Z,21.32
2022-09-21T03:26:34.704Z,21.32
2022-09-21T03:27:34.675Z,21.32
2022-09-21T03:28:34.676Z,21.32
2022-09-21T03:29:34.642Z,21.31
2022-09-21T03:30:34.646Z,21.31
2022-09-21T03:31:35.035Z,21.31
2022-09-21T03:32:34.633Z,21.31
2022-09-21T03:33:34.595Z,21.31
2022-09-21T03:34:34.618Z,21.29
2022-09-21T03:35:34.571Z,21.29
2022-09-21T03:36:34.549Z,21.31
2022-09-21T03:37:38.114Z,21.28
2022-09-21T03:38:35.527Z,21.28
2022-09-21T03:39:34.517Z,21.28
2022-09-21T03:40:34.555Z,21.29
2022-09-21T03:41:34.492Z,21.28
2022-09-21T03:42:34.512Z,21.29
2022-09-21T03:43:34.718Z,21.28
2022-09-21T03:44:34.444Z,21.25
2022-09-21T03:45:34.429Z,21.27
2022-09-21T03:46:34.469Z,21.24
2022-09-21T03:47:34.398Z,21.27
2022-09-21T03:48:34.386Z,21.27
2022-09-21T03:49:34.568Z,21.27
2022-09-21T03:50:34.373Z,21.27
2022-09-21T03:51:34.351Z,21.22
2022-09-21T03:52:34.358Z,21.24
2022-09-21T03:53:34.318Z,21.27
2022-09-21T03:54:34.306Z,21.24
2022-09-21T03:55:34.396Z,21.25
2022-09-21T03:56:34.270Z,21.24
2022-09-21T03:57:34.302Z,21.27
2022-09-21T03:58:34.251Z,21.24
2022-09-21T03:59:34.227Z,21.24
2022-09-21T04:00:34.260Z,21.24
2022-09-21T04:01:34.360Z,21.27
2022-09-21T04:02:34.236Z,21.27
2022-09-21T04:03:34.191Z,21.25
2022-09-21T04:04:34.200Z,21.22
2022-09-21T04:05:34.182Z,21.25
2022-09-21T04:06:34.147Z,21.24
2022-09-21T04:07:34.297Z,21.21
2022-09-21T04:08:34.102Z,21.21
2022-09-21T04:09:34.108Z,21.21
2022-09-21T04:10:34.090Z,21.21
2022-09-21T04:11:34.073Z,21.27
2022-09-21T04:12:34.047Z,21.25
2022-09-21T04:13:34.263Z,21.21
2022-09-21T04:14:34.026Z,21.24
2022-09-21T04:15:34.073Z,21.25
2022-09-21T04:16:34.010Z,21.22
2022-09-21T04:17:33.981Z,21.21
2022-09-21T04:18:33.971Z,21.19
2022-09-21T04:19:34.124Z,21.19
2022-09-21T04:20:33.989Z,21.19
2022-09-21T04:21:33.942Z,21.17
2022-09-21T04:22:33.911Z,21.19
2022-09-21T04:23:33.917Z,21.17
2022-09-21T04:24:33.883Z,21.16
2022-09-21T04:25:34.056Z,21.17
2022-09-21T04:26:33.862Z,21.19
2022-09-21T04:27:33.833Z,21.14
2022-09-21T04:28:33.862Z,21.16
2022-09-21T04:29:33.812Z,21.16
2022-09-21T04:30:37.522Z,21.16
2022-09-21T04:31:33.902Z,21.16
2022-09-21T04:32:33.775Z,21.17
2022-09-21T04:33:33.757Z,21.16
2022-09-21T04:34:33.747Z,21.19
2022-09-21T04:35:33.736Z,21.19
2022-09-21T04:36:36.617Z,21.17
2022-09-21T04:37:34.116Z,21.16
2022-09-21T04:38:33.682Z,21.17
2022-09-21T04:39:33.694Z,21.16
2022-09-21T04:40:33.702Z,21.14
2022-09-21T04:41:33.653Z,21.16
2022-09-21T04:42:33.642Z,21.12
2022-09-21T04:43:33.809Z,21.17
2022-09-21T04:44:33.611Z,21.17
2022-09-21T04:45:33.586Z,21.14
2022-09-21T04:46:33.615Z,21.16
2022-09-21T04:47:33.568Z,21.14
2022-09-21T04:48:33.546Z,21.12
2022-09-21T04:49:33.656Z,21.13
2022-09-21T04:50:33.514Z,21.13
2022-09-21T04:51:33.502Z,21.13
2022-09-21T04:52:33.503Z,21.13
2022-09-21T04:53:33.506Z,21.14
2022-09-21T04:54:33.464Z,21.13
2022-09-21T04:55:33.764Z,21.12
2022-09-21T04:56:33.435Z,21.12
2022-09-21T04:57:33.427Z,21.13
2022-09-21T04:58:33.410Z,21.10
2022-09-21T04:59:33.381Z,21.10
2022-09-21T05:00:33.372Z,21.09
2022-09-21T05:01:33.720Z,21.07
2022-09-21T05:02:33.366Z,21.09
2022-09-21T05:03:33.364Z,21.07
2022-09-21T05:04:33.324Z,21.07
2022-09-21T05:05:33.316Z,21.07
2022-09-21T05:06:33.290Z,21.09
2022-09-21T05:07:33.498Z,21.07
2022-09-21T05:08:33.306Z,21.07
2022-09-21T05:09:33.264Z,21.09
2022-09-21T05:10:33.262Z,21.10
2022-09-21T05:11:33.246Z,21.09
2022-09-21T05:12:33.273Z,21.07
2022-09-21T05:13:33.398Z,21.09
2022-09-21T05:14:33.222Z,21.09
2022-09-21T05:15:33.202Z,21.06
2022-09-21T05:16:33.879Z,21.04
2022-09-21T05:17:33.180Z,21.10
2022-09-21T05:18:33.188Z,21.09
2022-09-21T05:19:33.295Z,21.12
2022-09-21T05:20:33.139Z,21.16
2022-09-21T05:21:33.185Z,21.13
2022-09-21T05:22:33.102Z,21.14
2022-09-21T05:23:33.117Z,21.12
2022-09-21T05:24:33.054Z,21.12
2022-09-21T05:25:33.344Z,21.09
2022-09-21T05:26:33.047Z,21.07
2022-09-21T05:27:33.006Z,21.04
2022-09-21T05:28:35.518Z,21.06
2022-09-21T05:29:33.973Z,21.06
2022-09-21T05:30:33.037Z,21.04
2022-09-21T05:31:33.184Z,21.04
2022-09-21T05:32:32.932Z,21.07
2022-09-21T05:33:32.938Z,21.06
2022-09-21T05:34:36.382Z,21.07
2022-09-21T05:35:32.905Z,21.12
2022-09-21T05:36:32.870Z,21.12
2022-09-21T05:37:33.109Z,21.13
2022-09-21T05:38:32.857Z,21.22
2022-09-21T05:39:32.860Z,21.21
2022-09-21T05:40:32.889Z,21.17
2022-09-21T05:41:32.799Z,21.21
2022-09-21T05:42:32.789Z,21.17
2022-09-21T05:43:32.951Z,21.14
2022-09-21T05:44:32.794Z,21.17
2022-09-21T05:45:32.748Z,21.12
2022-09-21T05:46:32.742Z,21.10
2022-09-21T05:47:32.733Z,21.12
2022-09-21T05:48:32.707Z,21.06
2022-09-21T05:49:32.936Z,21.09
2022-09-21T05:50:32.686Z,21.09
2022-09-21T05:51:32.700Z,21.04
2022-09-21T05:52:32.648Z,21.10
2022-09-21T05:53:32.650Z,21.09
2022-09-21T05:54:32.630Z,21.09
2022-09-21T05:55:32.814Z,21.13
2022-09-21T05:56:32.595Z,21.12
2022-09-21T05:57:32.582Z,21.07
2022-09-21T05:58:32.587Z,21.10
2022-09-21T05:59:32.552Z,21.10
2022-09-21T06:00:32.548Z,21.10
2022-09-21T06:01:32.845Z,21.07
2022-09-21T06:02:32.553Z,21.09
2022-09-21T06:03:32.491Z,21.07
2022-09-21T06:04:32.480Z,21.10
2022-09-21T06:05:32.483Z,21.12
2022-09-21T06:06:32.461Z,21.09
2022-09-21T06:07:32.770Z,20.99
2022-09-21T06:08:32.461Z,20.89
2022-09-21T06:09:32.411Z,20.85
2022-09-21T06:10:32.409Z,20.80
2022-09-21T06:11:32.398Z,20.76
2022-09-21T06:12:32.397Z,20.76
2022-09-21T06:13:32.630Z,20.80
2022-09-21T06:14:32.409Z,20.84
2022-09-21T06:15:32.391Z,20.88
2022-09-21T06:16:32.356Z,20.91
2022-09-21T06:17:32.322Z,20.92
2022-09-21T06:18:32.305Z,20.95
2022-09-21T06:19:32.448Z,20.98
2022-09-21T06:20:32.275Z,20.97
2022-09-21T06:21:32.251Z,20.99
2022-09-21T06:22:32.231Z,21.01
2022-09-21T06:23:32.299Z,21.06
2022-09-21T06:24:32.199Z,21.07
2022-09-21T06:25:32.240Z,21.09
2022-09-21T06:26:32.179Z,21.10
2022-09-21T06:27:32.166Z,21.12
2022-09-21T06:28:32.166Z,21.10
2022-09-21T06:29:32.299Z,21.09
2022-09-21T06:30:32.146Z,21.12
2022-09-21T06:31:32.206Z,21.10
2022-09-21T06:32:32.084Z,21.10
2022-09-21T06:33:32.083Z,21.10
2022-09-21T06:34:32.069Z,21.10
2022-09-21T06:35:32.161Z,21.13
2022-09-21T06:36:32.047Z,21.10
2022-09-21T06:37:32.059Z,21.13
2022-09-21T06:38:32.012Z,21.13
2022-09-21T06:39:31.991Z,21.16
2022-09-21T06:40:32.026Z,21.16
2022-09-21T06:41:32.147Z,21.17
2022-09-21T06:42:31.960Z,21.16
2022-09-21T06:43:31.995Z,21.17
2022-09-21T06:44:31.941Z,21.19
2022-09-21T06:45:31.925Z,21.21
2022-09-21T06:46:31.898Z,21.19
2022-09-21T06:47:31.960Z,21.19
2022-09-21T06:48:31.903Z,21.19
2022-09-21T06:49:31.938Z,21.21
2022-09-21T06:50:31.894Z,21.21
2022-09-21T06:51:31.834Z,21.24
2022-09-21T06:52:31.807Z,21.25
2022-09-21T06:53:32.037Z,21.25
2022-09-21T06:54:31.800Z,21.27
2022-09-21T06:55:31.807Z,21.25
2022-09-21T06:56:31.762Z,21.27
2022-09-21T06:57:31.766Z,21.28
2022-09-21T06:58:31.747Z,21.31
2022-09-21T06:59:32.073Z,21.31
2022-09-21T07:00:31.693Z,21.29
2022-09-21T07:01:31.837Z,21.28
2022-09-21T07:02:31.676Z,21.29
2022-09-21T07:03:31.661Z,21.28
2022-09-21T07:04:31.654Z,21.29
2022-09-21T07:05:31.726Z,21.31
2022-09-21T07:06:31.634Z,21.25
2022-09-21T07:07:31.664Z,21.28
2022-09-21T07:10:32.753Z,21.32
2022-09-21T07:11:31.550Z,21.27
2022-09-21T07:12:31.545Z,21.31
2022-09-21T07:13:31.563Z,21.32
2022-09-21T07:14:31.503Z,21.31
2022-09-21T07:15:31.498Z,21.32
2022-09-21T07:16:31.647Z,21.34
2022-09-21T07:17:31.473Z,21.34
2022-09-21T07:18:42.686Z,21.37
2022-09-21T07:19:32.564Z,21.37
2022-09-21T07:20:31.422Z,21.37
2022-09-21T07:21:31.409Z,21.38
2022-09-21T07:22:31.489Z,21.40
2022-09-21T07:23:31.386Z,21.40
2022-09-21T07:24:31.385Z,21.37
2022-09-21T07:25:31.401Z,21.40
2022-09-21T07:26:31.346Z,21.37
2022-09-21T07:27:31.335Z,21.37
2022-09-21T07:28:31.538Z,21.40
2022-09-21T07:29:31.309Z,21.38
2022-09-21T07:30:31.285Z,21.44
2022-09-21T07:31:31.377Z,21.47
2022-09-21T07:32:31.253Z,21.44
2022-09-21T07:33:35.749Z,21.46
2022-09-21T07:34:31.445Z,21.47
2022-09-21T07:35:31.216Z,21.52
2022-09-21T07:36:31.202Z,21.52
2022-09-21T07:37:31.215Z,21.52
2022-09-21T07:38:31.168Z,21.53
2022-09-21T07:39:31.164Z,21.58
2022-09-21T07:40:31.401Z,21.53
2022-09-21T07:41:31.134Z,21.54
2022-09-21T07:42:31.120Z,21.53
2022-09-21T07:43:31.139Z,21.54
2022-09-21T07:44:31.089Z,21.54
2022-09-21T07:45:31.142Z,21.52
2022-09-21T07:46:31.222Z,21.54
2022-09-21T07:47:31.053Z,21.54
2022-09-21T07:48:31.032Z,21.58
2022-09-21T07:49:31.070Z,21.61
2022-09-21T07:50:30.999Z,21.59
2022-09-21T07:51:31.038Z,21.59
2022-09-21T07:52:31.130Z,21.61
2022-09-21T07:53:30.958Z,21.58
2022-09-21T07:54:30.958Z,21.62
2022-09-21T07:55:31.030Z,21.65
2022-09-21T07:56:30.935Z,21.65
2022-09-21T07:57:30.917Z,21.64
2022-09-21T07:58:31.215Z,21.62
2022-09-21T07:59:30.907Z,21.62
2022-09-21T08:00:30.863Z,21.64
2022-09-21T08:01:30.988Z,21.65
2022-09-21T08:02:30.902Z,21.64
2022-09-21T08:03:30.850Z,21.62
2022-09-21T08:04:30.910Z,21.64
2022-09-21T08:05:30.798Z,21.67
2022-09-21T08:06:30.804Z,21.65
2022-09-21T08:07:30.801Z,21.65
2022-09-21T08:08:30.765Z,21.65
2022-09-21T08:09:30.748Z,21.67
2022-09-21T08:10:30.857Z,21.64
2022-09-21T08:11:30.725Z,21.67
2022-09-21T08:12:30.803Z,21.65
2022-09-21T08:13:30.784Z,21.68
2022-09-21T08:14:30.684Z,21.67
2022-09-21T08:15:48.948Z,21.68
2022-09-21T08:16:31.876Z,21.68
2022-09-21T08:17:30.645Z,21.71
2022-09-21T08:18:30.633Z,21.74
2022-09-21T08:19:30.637Z,21.72
2022-09-21T08:20:30.599Z,21.74
2022-09-21T08:21:30.634Z,21.75
2022-09-21T08:22:30.770Z,21.77
2022-09-21T08:23:31.066Z,21.77
2022-09-21T08:24:30.601Z,21.80
2022-09-21T08:25:30.593Z,21.82
2022-09-21T08:26:30.513Z,21.84
2022-09-21T08:27:30.511Z,21.83
2022-09-21T08:28:30.693Z,21.86
2022-09-21T08:29:30.481Z,21.88
2022-09-21T08:30:30.489Z,21.90
2022-09-21T08:31:30.564Z,21.91
2022-09-21T08:32:49.922Z,21.92
2022-09-21T08:33:31.586Z,21.94
2022-09-21T08:34:30.406Z,21.94
2022-09-21T08:35:31.297Z,22.00
2022-09-21T08:36:30.377Z,22.00
2022-09-21T08:37:30.376Z,22.00
2022-09-21T08:38:30.345Z,22.03
2022-09-21T08:39:30.413Z,22.03
2022-09-21T08:40:30.405Z,22.05
2022-09-21T08:41:30.314Z,22.06
2022-09-21T08:42:30.310Z,22.06
2022-09-21T08:43:30.313Z,22.07
2022-09-21T08:44:30.281Z,22.06
2022-09-21T08:45:30.330Z,22.06
2022-09-21T08:46:30.291Z,22.10
2022-09-21T08:47:30.258Z,22.12
2022-09-21T08:48:35.887Z,22.14
2022-09-21T08:49:31.236Z,22.15
2022-09-21T08:50:30.206Z,22.18
2022-09-21T08:51:30.254Z,22.21
2022-09-21T08:52:30.150Z,22.22
2022-09-21T08:53:30.132Z,22.24
2022-09-21T08:54:30.115Z,22.25
2022-09-21T08:55:30.221Z,22.25
2022-09-21T08:56:47.374Z,22.24
2022-09-21T08:57:31.214Z,22.27
2022-09-21T08:58:30.070Z,22.31
2022-09-21T08:59:30.098Z,22.30
2022-09-21T09:00:30.097Z,22.36
2022-09-21T09:01:30.034Z,22.37
2022-09-21T09:02:30.006Z,22.36
2022-09-21T09:03:30.067Z,22.39
2022-09-21T09:04:30.009Z,22.40
2022-09-21T09:05:29.987Z,22.39
2022-09-21T09:06:29.946Z,22.42
2022-09-21T09:07:29.965Z,22.42
2022-09-21T09:08:29.924Z,22.47
2022-09-21T09:09:30.060Z,22.47
2022-09-21T09:10:29.899Z,22.43
2022-09-21T09:11:29.889Z,22.45
2022-09-21T09:12:29.881Z,22.49
2022-09-21T09:13:29.897Z,22.49
2022-09-21T09:14:29.831Z,22.51
2022-09-21T09:15:29.972Z,22.52
2022-09-21T09:16:29.823Z,22.52
2022-09-21T09:17:29.792Z,22.49
2022-09-21T09:18:29.785Z,22.49
2022-09-21T09:19:29.944Z,22.51
2022-09-21T09:20:29.771Z,22.49
2022-09-21T09:21:32.194Z,22.52
2022-09-21T09:22:29.744Z,22.52
2022-09-21T09:23:29.730Z,22.55
2022-09-21T09:24:29.691Z,22.55
2022-09-21T09:25:29.707Z,22.57
2022-09-21T09:26:29.670Z,22.57
2022-09-21T09:27:29.749Z,22.60
2022-09-21T09:28:29.654Z,22.61
2022-09-21T09:29:29.618Z,22.62
2022-09-21T09:30:29.622Z,22.64
2022-09-21T09:31:29.689Z,22.64
2022-09-21T09:32:29.578Z,22.65
2022-09-21T09:33:29.789Z,22.67
2022-09-21T09:34:29.557Z,22.70
2022-09-21T09:35:29.538Z,22.70
2022-09-21T09:36:54.009Z,22.70
2022-09-21T09:37:30.546Z,22.72
2022-09-21T09:38:29.517Z,22.73
2022-09-21T09:39:29.566Z,22.72
2022-09-21T09:40:29.503Z,22.76
2022-09-21T09:41:29.468Z,22.79
2022-09-21T09:42:29.443Z,22.79
2022-09-21T09:43:29.452Z,22.79
2022-09-21T09:44:29.413Z,22.82
2022-09-21T09:45:29.481Z,22.79
2022-09-21T09:46:29.442Z,22.77
2022-09-21T09:47:29.371Z,22.83
2022-09-21T09:48:29.359Z,22.85
2022-09-21T09:49:29.363Z,22.88
2022-09-21T09:50:29.331Z,22.88
2022-09-21T09:51:29.431Z,22.91
2022-09-21T09:52:29.299Z,22.94
2022-09-21T09:53:29.316Z,22.95
2022-09-21T09:54:29.308Z,22.91
2022-09-21T09:55:29.290Z,22.94
2022-09-21T09:56:29.239Z,22.92
2022-09-21T09:57:29.397Z,22.91
2022-09-21T09:58:29.230Z,22.91
2022-09-21T09:59:29.218Z,22.91
2022-09-21T10:00:29.180Z,22.92
2022-09-21T10:01:29.276Z,22.91
2022-09-21T10:02:29.160Z,22.91
2022-09-21T10:03:29.295Z,22.92
2022-09-21T10:04:29.181Z,22.92
2022-09-21T10:05:29.114Z,22.91
2022-09-21T10:06:29.106Z,22.95
2022-09-21T10:07:29.102Z,22.95
2022-09-21T10:08:29.072Z,22.98
2022-09-21T10:09:29.556Z,23.00
2022-09-21T10:10:29.051Z,23.02
2022-09-21T10:11:29.030Z,23.02
2022-09-21T10:12:29.023Z,23.02
2022-09-21T10:13:29.036Z,23.01
2022-09-21T10:14:29.008Z,23.05
2022-09-21T10:15:29.070Z,23.05
2022-09-21T10:16:29.048Z,23.07
2022-09-21T10:17:28.948Z,23.07
2022-09-21T10:18:28.965Z,23.05
2022-09-21T10:19:28.986Z,23.05
2022-09-21T10:20:28.896Z,23.05
2022-09-21T10:21:29.049Z,23.02
2022-09-21T10:22:28.884Z,23.04
2022-09-21T10:23:28.875Z,23.02
2022-09-21T10:24:28.865Z,23.04
2022-09-21T10:25:28.876Z,23.02
2022-09-21T10:26:28.825Z,23.02
2022-09-21T10:27:28.886Z,23.07
2022-09-21T10:28:28.787Z,23.05
2022-09-21T10:29:28.771Z,23.05
2022-09-21T10:30:28.766Z,23.09
2022-09-21T10:31:28.816Z,23.05
2022-09-21T10:32:28.723Z,23.10
2022-09-21T10:33:28.867Z,23.09
2022-09-21T10:34:28.725Z,23.12
2022-09-21T10:35:28.685Z,23.22
2022-09-21T10:36:28.685Z,23.39
2022-09-21T10:37:28.816Z,23.55
2022-09-21T10:38:28.641Z,23.90
2022-09-21T10:39:28.714Z,24.20
2022-09-21T10:40:28.693Z,24.34
2022-09-21T10:42:29.506Z,24.32
2022-09-21T10:43:31.769Z,24.15
2022-09-21T10:44:29.650Z,24.05
2022-09-21T10:45:29.449Z,23.95
2022-09-21T10:46:29.472Z,23.90
2022-09-21T10:47:29.434Z,23.84
2022-09-21T10:48:29.445Z,23.80
2022-09-21T10:49:29.410Z,23.75
2022-09-21T10:50:29.482Z,23.73
2022-09-21T10:51:29.371Z,23.68
2022-09-21T10:53:53.823Z,23.66
2022-09-21T10:54:50.264Z,23.61
2022-09-21T10:56:04.983Z,23.60
2022-09-21T10:56:51.230Z,23.58
2022-09-21T10:57:50.213Z,23.55
2022-09-21T10:58:50.184Z,23.54
2022-09-21T10:59:50.300Z,23.55
2022-09-21T11:00:50.166Z,23.51
2022-09-21T11:01:50.193Z,23.50
2022-09-21T11:02:50.197Z,23.50
2022-09-21T11:03:50.121Z,23.50
2022-09-21T11:04:50.115Z,23.50
2022-09-21T11:05:50.199Z,23.48
2022-09-21T11:06:50.070Z,23.48
2022-09-21T11:07:50.051Z,23.48
2022-09-21T11:08:50.033Z,23.47
2022-09-21T11:09:50.055Z,23.47
2022-09-21T11:10:50.347Z,23.47
2022-09-21T11:11:50.115Z,23.47
2022-09-21T11:12:50.002Z,23.46
2022-09-21T11:13:49.983Z,23.47
2022-09-21T11:14:49.962Z,23.46
2022-09-21T11:15:50.049Z,23.48
2022-09-21T11:16:49.927Z,23.47
2022-09-21T11:17:50.065Z,23.47
2022-09-21T11:18:49.965Z,23.46
2022-09-21T11:19:49.887Z,23.47
2022-09-21T11:20:50.291Z,23.46
2022-09-21T11:21:49.889Z,23.48
2022-09-21T11:22:51.557Z,23.48
2022-09-21T11:23:50.258Z,23.47
2022-09-21T11:24:49.840Z,23.46
2022-09-21T11:25:50.139Z,23.50
2022-09-21T11:26:49.789Z,23.50
2022-09-21T11:27:49.999Z,23.50
2022-09-21T11:28:49.770Z,23.50
2022-09-21T11:29:49.977Z,23.50
2022-09-21T11:30:49.813Z,23.48
2022-09-21T11:31:49.750Z,23.51
2022-09-21T11:32:49.727Z,23.50
2022-09-21T11:33:49.709Z,23.50
2022-09-21T11:34:49.699Z,23.50
2022-09-21T11:35:49.895Z,23.53
2022-09-21T11:36:49.671Z,23.51
2022-09-21T11:37:49.655Z,23.53
2022-09-21T11:38:49.634Z,23.53
2022-09-21T11:39:49.627Z,23.54
2022-09-21T11:40:49.963Z,23.53
2022-09-21T11:41:49.784Z,23.53
2022-09-21T11:42:49.583Z,23.54
2022-09-21T11:43:49.585Z,23.53
2022-09-21T11:44:49.555Z,23.54
2022-09-21T11:45:50.642Z,23.55
2022-09-21T11:46:49.522Z,23.54
2022-09-21T11:47:49.774Z,23.54
2022-09-21T11:48:49.497Z,23.54
2022-09-21T11:49:49.505Z,23.54
2022-09-21T11:50:52.721Z,23.55
2022-09-21T11:51:49.460Z,23.55
2022-09-21T11:52:49.443Z,23.57
2022-09-21T11:53:49.555Z,23.55
2022-09-21T11:54:49.419Z,23.57
2022-09-21T11:55:49.808Z,23.55
2022-09-21T11:56:49.394Z,23.58
2022-09-21T11:57:52.873Z,23.60
2022-09-21T11:58:53.031Z,23.61
2022-09-21T11:59:49.372Z,23.60
2022-09-21T12:00:49.337Z,23.61
2022-09-21T12:01:49.318Z,23.61
2022-09-21T12:03:49.346Z,23.58
2022-09-21T12:04:49.395Z,23.61
2022-09-21T12:05:50.223Z,23.63
2022-09-21T12:06:49.263Z,23.61
2022-09-21T12:07:49.239Z,23.61
2022-09-21T12:08:49.340Z,23.63
2022-09-21T12:09:49.211Z,23.63
2022-09-21T12:10:50.177Z,23.63
2022-09-21T12:11:49.207Z,23.61
2022-09-21T12:12:49.167Z,23.66
2022-09-21T12:13:49.282Z,23.65
2022-09-21T12:14:49.159Z,23.65
2022-09-21T12:15:49.136Z,23.65
2022-09-21T12:16:49.304Z,23.65
2022-09-21T12:17:49.098Z,23.65
2022-09-21T12:18:49.780Z,23.65
2022-09-21T12:19:49.082Z,23.68
2022-09-21T12:20:49.437Z,23.66
2022-09-21T12:21:49.162Z,23.66
2022-09-21T12:22:49.226Z,23.66
2022-09-21T12:23:49.264Z,23.68
2022-09-21T12:24:49.018Z,23.68
2022-09-21T12:25:49.003Z,23.68
2022-09-21T12:26:48.976Z,23.68
2022-09-21T12:27:48.970Z,23.68
2022-09-21T12:28:49.604Z,23.69
2022-09-21T12:29:48.941Z,23.68
2022-09-21T12:30:48.958Z,23.69
2022-09-21T12:31:48.923Z,23.70
2022-09-21T12:32:48.894Z,23.69
2022-09-21T12:33:49.230Z,23.69
2022-09-21T12:34:51.833Z,23.69
2022-09-21T12:36:49.027Z,23.70
2022-09-21T12:37:48.830Z,23.69
2022-09-21T12:38:49.204Z,23.69
2022-09-21T12:39:48.816Z,23.69
2022-09-21T12:40:48.880Z,23.69
2022-09-21T12:41:48.841Z,23.70
2022-09-21T12:42:49.032Z,23.70
2022-09-21T12:43:48.822Z,23.70
2022-09-21T12:44:48.723Z,23.70
2022-09-21T12:45:48.831Z,23.72
2022-09-21T12:46:51.139Z,23.72
2022-09-21T12:47:48.769Z,23.73
2022-09-21T12:48:48.936Z,23.75
2022-09-21T12:49:48.711Z,23.75
2022-09-21T12:50:48.760Z,23.75
2022-09-21T12:51:48.629Z,23.76
2022-09-21T12:52:48.704Z,23.78
2022-09-21T12:53:50.876Z,23.78
2022-09-21T12:54:48.787Z,23.78
2022-09-21T12:55:49.003Z,23.80
2022-09-21T12:56:48.650Z,23.79
2022-09-21T12:58:04.790Z,23.80
2022-09-21T12:58:49.570Z,23.83